createdAt,value
2022-07-28T00:02:42.002Z,19.10
2022-07-28T00:07:45.364Z,18.90
2022-07-28T00:12:48.398Z,18.90
2022-07-28T00:17:52.649Z,18.80
2022-07-28T00:22:55.594Z,18.70
2022-07-28T00:27:58.511Z,18.60
2022-07-28T00:33:02.763Z,18.60
2022-07-28T00:38:07.625Z,18.50
2022-07-28T00:43:14.565Z,18.40
2022-07-28T00:48:18.813Z,18.20
2022-07-28T00:53:22.348Z,18.10
2022-07-28T00:58:27.544Z,18.00
2022-07-28T01:03:33.192Z,17.90
2022-07-28T01:08:48.862Z,17.80
2022-07-28T01:13:59.886Z,17.70
2022-07-28T01:19:11.498Z,17.60
2022-07-28T01:24:24.035Z,17.60
2022-07-28T01:29:46.327Z,17.50
2022-07-28T01:34:56.968Z,17.40
2022-07-28T01:40:03.822Z,17.30
2022-07-28T01:45:08.871Z,17.30
2022-07-28T01:50:15.540Z,17.20
2022-07-28T01:55:21.298Z,17.10
2022-07-28T02:00:27.748Z,17.10
2022-07-28T02:05:34.063Z,17.00
2022-07-28T02:10:38.063Z,17.00
2022-07-28T02:15:42.666Z,16.90
2022-07-28T02:20:47.193Z,16.90
2022-07-28T02:25:51.302Z,16.80
2022-07-28T02:30:59.843Z,16.80
2022-07-28T02:36:11.079Z,16.70
2022-07-28T02:41:23.383Z,16.70
2022-07-28T02:46:30.125Z,16.60
2022-07-28T02:51:36.889Z,16.60
2022-07-28T02:56:42.444Z,16.60
2022-07-28T03:01:57.697Z,16.60
2022-07-28T03:07:02.106Z,16.50
2022-07-28T03:12:05.448Z,16.50
2022-07-28T03:17:08.973Z,16.50
2022-07-28T03:22:13.681Z,16.40
2022-07-28T03:27:22.595Z,16.40
2022-07-28T03:32:28.080Z,16.30
2022-07-28T03:37:36.925Z,16.30
2022-07-28T03:42:41.795Z,16.20
2022-07-28T03:47:52.490Z,16.20
2022-07-28T03:52:58.420Z,16.10
2022-07-28T03:58:01.496Z,16.10
2022-07-28T04:03:04.469Z,16.00
2022-07-28T04:08:28.728Z,15.90
2022-07-28T04:13:32.880Z,15.90
2022-07-28T04:18:36.114Z,15.80
2022-07-28T04:23:40.536Z,15.70
2022-07-28T04:28:43.441Z,15.70
2022-07-28T04:33:46.769Z,15.60
2022-07-28T04:38:51.087Z,15.50
2022-07-28T04:43:54.028Z,15.60
2022-07-28T04:48:57.490Z,15.60
2022-07-28T04:54:01.802Z,15.60
2022-07-28T04:59:05.061Z,15.70
2022-07-28T05:04:08.593Z,15.70
2022-07-28T05:09:12.972Z,15.80
2022-07-28T05:14:17.566Z,15.80
2022-07-28T05:19:20.585Z,15.90
2022-07-28T05:24:25.013Z,16.00
2022-07-28T05:29:47.435Z,16.10
2022-07-28T05:34:51.088Z,16.10
2022-07-28T05:39:55.560Z,16.20
2022-07-28T05:44:58.932Z,16.30
2022-07-28T05:50:04.166Z,16.40
2022-07-28T05:55:09.925Z,16.50
2022-07-28T06:00:15.459Z,16.60
2022-07-28T06:05:20.623Z,16.80
2022-07-28T06:10:27.179Z,16.80
2022-07-28T06:15:30.194Z,17.00
2022-07-28T06:20:33.316Z,17.10
2022-07-28T06:25:37.678Z,17.30
2022-07-28T06:30:40.709Z,17.50
2022-07-28T06:35:51.061Z,17.70
2022-07-28T06:40:55.950Z,17.90
2022-07-28T06:45:58.858Z,18.20
2022-07-28T06:51:02.376Z,18.40
2022-07-28T06:56:07.579Z,18.70
2022-07-28T07:01:17.225Z,19.00
2022-07-28T07:06:20.225Z,19.30
2022-07-28T07:11:24.826Z,19.60
2022-07-28T07:16:27.916Z,19.80
2022-07-28T07:21:30.848Z,20.10
2022-07-28T07:26:35.105Z,20.30
2022-07-28T07:31:40.781Z,20.60
2022-07-28T07:36:43.877Z,20.80
2022-07-28T07:41:48.174Z,21.10
2022-07-28T07:46:51.256Z,21.30
2022-07-28T07:51:54.236Z,21.60
2022-07-28T07:56:58.939Z,21.80
2022-07-28T08:02:02.268Z,22.10
2022-07-28T08:07:05.691Z,22.30
2022-07-28T08:12:10.602Z,22.50
2022-07-28T08:17:13.530Z,22.70
2022-07-28T08:22:16.615Z,22.90
2022-07-28T08:27:20.985Z,23.10
2022-07-28T08:32:23.916Z,23.40
2022-07-28T08:37:26.897Z,23.50
2022-07-28T08:42:39.842Z,23.70
2022-07-28T08:48:07.312Z,23.90
2022-07-28T08:53:08.544Z,24.20
2022-07-28T08:58:13.517Z,24.40
2022-07-28T09:03:18.438Z,24.60
2022-07-28T09:08:21.578Z,24.80
2022-07-28T09:13:25.917Z,25.00
2022-07-28T09:18:28.890Z,25.20
2022-07-28T09:23:44.598Z,25.50
2022-07-28T09:28:50.818Z,25.60
2022-07-28T09:33:55.517Z,25.80
2022-07-28T09:38:59.214Z,26.10
2022-07-28T09:44:03.566Z,26.30
2022-07-28T09:49:06.767Z,26.50
2022-07-28T09:54:11.783Z,26.70
2022-07-28T09:59:18.086Z,26.90
2022-07-28T10:04:33.116Z,27.10
2022-07-28T10:09:36.461Z,27.40
2022-07-28T10:14:41.028Z,27.60
2022-07-28T10:19:44.015Z,27.70
2022-07-28T10:24:52.717Z,27.90
2022-07-28T10:29:59.930Z,28.10
2022-07-28T10:35:06.069Z,28.20
2022-07-28T10:40:11.556Z,28.40
2022-07-28T10:45:16.748Z,28.50
2022-07-28T10:50:20.704Z,28.60
2022-07-28T10:55:32.237Z,28.80
2022-07-28T11:00:55.468Z,28.90
2022-07-28T11:05:59.382Z,29.00
2022-07-28T11:11:08.163Z,29.20
2022-07-28T11:16:24.782Z,29.30
2022-07-28T11:21:27.773Z,29.40
2022-07-28T11:26:36.930Z,29.50
2022-07-28T11:32:01.163Z,29.70
2022-07-28T11:37:06.041Z,29.80
2022-07-28T11:42:26.082Z,30.00
2022-07-28T11:47:31.725Z,30.30
2022-07-28T11:52:34.716Z,30.50
2022-07-28T11:57:41.324Z,30.60
2022-07-28T12:02:45.642Z,30.70
2022-07-28T12:07:50.663Z,30.80
2022-07-28T12:12:54.662Z,30.80
2022-07-28T12:18:00.154Z,30.90
2022-07-28T12:23:05.949Z,31.00
2022-07-28T12:28:16.678Z,31.10
2022-07-28T12:33:29.150Z,31.00
2022-07-28T12:38:33.018Z,31.00
2022-07-28T12:43:35.957Z,31.00
2022-07-28T12:48:42.605Z,30.90
2022-07-28T12:53:52.013Z,30.90
2022-07-28T12:59:06.039Z,30.80
2022-07-28T13:04:10.362Z,30.80
2022-07-28T13:09:23.877Z,30.80
2022-07-28T13:14:43.673Z,30.70
2022-07-28T13:19:48.716Z,30.70
2022-07-28T13:24:51.645Z,30.60
2022-07-28T13:29:55.324Z,30.60
2022-07-28T13:34:59.633Z,30.50
2022-07-28T13:40:02.714Z,30.50
2022-07-28T13:45:06.152Z,30.50
2022-07-28T13:50:11.280Z,30.50
2022-07-28T13:55:17.821Z,30.40
2022-07-28T14:00:25.690Z,30.40
2022-07-28T14:05:32.279Z,30.40
2022-07-28T14:10:36.719Z,30.50
2022-07-28T14:15:40.102Z,30.50
2022-07-28T14:20:44.385Z,30.60
2022-07-28T14:25:49.537Z,30.70
2022-07-28T14:30:54.153Z,30.80
2022-07-28T14:35:58.471Z,31.00
2022-07-28T14:41:01.401Z,31.20
2022-07-28T14:46:14.567Z,31.50
2022-07-28T14:51:25.632Z,31.60
2022-07-28T14:56:28.623Z,31.80
2022-07-28T15:01:36.106Z,31.90
2022-07-28T15:06:40.777Z,32.10
2022-07-28T15:11:46.230Z,32.00
2022-07-28T15:16:49.141Z,32.00
2022-07-28T15:21:53.466Z,31.90
2022-07-28T15:26:56.409Z,31.80
2022-07-28T15:31:59.570Z,31.70
2022-07-28T15:37:04.355Z,31.50
2022-07-28T15:42:07.382Z,31.50
2022-07-28T15:47:10.338Z,31.40
2022-07-28T15:52:14.984Z,31.30
2022-07-28T15:57:19.647Z,31.20
2022-07-28T16:02:22.788Z,31.10
2022-07-28T16:07:29.355Z,31.00
2022-07-28T16:12:33.329Z,31.00
2022-07-28T16:17:37.221Z,31.00
2022-07-28T16:22:41.536Z,31.00
2022-07-28T16:27:44.706Z,31.10
2022-07-28T16:32:48.154Z,31.10
2022-07-28T16:37:52.447Z,31.10
2022-07-28T16:42:56.506Z,31.10
2022-07-28T16:48:00.286Z,30.90
2022-07-28T16:53:06.853Z,30.90
2022-07-28T16:58:09.892Z,30.80
2022-07-28T17:03:12.832Z,30.60
2022-07-28T17:08:17.138Z,30.60
2022-07-28T17:13:21.324Z,30.50
2022-07-28T17:18:24.297Z,30.40
2022-07-28T17:23:28.601Z,30.30
2022-07-28T17:28:32.591Z,30.20
2022-07-28T17:33:35.909Z,30.10
2022-07-28T17:38:40.193Z,30.00
2022-07-28T17:43:45.646Z,29.90
2022-07-28T17:48:48.900Z,29.80
2022-07-28T17:53:55.568Z,29.70
2022-07-28T17:58:58.737Z,29.60
2022-07-28T18:04:01.779Z,29.50
2022-07-28T18:09:08.609Z,29.40
2022-07-28T18:14:11.625Z,29.40
2022-07-28T18:19:14.574Z,29.20
2022-07-28T18:24:21.780Z,29.20
2022-07-28T18:29:26.004Z,29.10
2022-07-28T18:34:41.660Z,29.10
2022-07-28T18:39:45.941Z,29.00
2022-07-28T18:44:48.863Z,28.90
2022-07-28T18:49:51.893Z,28.90
2022-07-28T18:54:56.359Z,28.70
2022-07-28T18:59:59.563Z,28.70
2022-07-28T19:05:02.552Z,28.50
2022-07-28T19:10:09.481Z,28.40
2022-07-28T19:15:12.432Z,28.30
2022-07-28T19:20:16.752Z,28.10
2022-07-28T19:25:22.693Z,28.00
2022-07-28T19:30:25.969Z,27.90
2022-07-28T19:35:29.162Z,27.70
2022-07-28T19:40:33.495Z,27.60
2022-07-28T19:45:36.499Z,27.50
2022-07-28T19:50:40.915Z,27.40
2022-07-28T19:55:50.720Z,27.20
2022-07-28T20:00:56.499Z,27.20
2022-07-28T20:05:59.882Z,27.00
2022-07-28T20:11:04.240Z,26.90
2022-07-28T20:16:07.538Z,26.80
2022-07-28T20:21:10.521Z,26.70
2022-07-28T20:26:15.116Z,26.60
2022-07-28T20:31:18.972Z,26.40
2022-07-28T20:36:25.069Z,26.30
2022-07-28T20:41:33.672Z,26.20
2022-07-28T20:46:36.598Z,26.10
2022-07-28T20:51:39.575Z,26.00
2022-07-28T20:56:49.662Z,25.90
2022-07-28T21:01:52.901Z,25.90
2022-07-28T21:07:01.620Z,25.80
2022-07-28T21:12:07.880Z,25.80
2022-07-28T21:17:10.976Z,25.70
2022-07-28T21:22:13.987Z,25.70
2022-07-28T21:27:20.015Z,25.60
2022-07-28T21:32:22.912Z,25.40
2022-07-28T21:37:25.827Z,25.40
2022-07-28T21:42:30.097Z,25.30
2022-07-28T21:47:34.147Z,25.20
2022-07-28T21:52:37.386Z,25.10
2022-07-28T21:57:41.875Z,24.90
2022-07-28T22:02:44.788Z,24.80
2022-07-28T22:07:48.266Z,24.80
2022-07-28T22:12:52.623Z,24.70
2022-07-28T22:17:55.541Z,24.70
2022-07-28T22:22:58.446Z,24.60
2022-07-28T22:28:02.793Z,24.60
2022-07-28T22:33:06.014Z,24.50
2022-07-28T22:38:08.944Z,24.40
2022-07-28T22:43:13.317Z,24.30
2022-07-28T22:48:16.229Z,24.10
2022-07-28T22:53:19.144Z,24.00
2022-07-28T22:58:23.415Z,23.80
2022-07-28T23:03:26.429Z,23.70
2022-07-28T23:08:29.546Z,23.60
2022-07-28T23:13:33.990Z,23.50
2022-07-28T23:18:39.104Z,23.50
2022-07-28T23:23:42.139Z,23.50
2022-07-28T23:28:46.376Z,23.50
2022-07-28T23:33:55.830Z,23.50
2022-07-28T23:39:00.634Z,23.50
2022-07-28T23:44:05.393Z,23.50
2022-07-28T23:49:08.423Z,23.40
2022-07-28T23:54:14.562Z,23.40
2022-07-28T23:59:19.187Z,23.40
